Time;durP1;ratioP1;P1;durP2;ratioP2;P2;SDS_P1;SDS_P2;PMS_P1;PMS_P2;Temp;Humidity;BMP_temperature;BMP_pressure;BME280_temperature;BME280_humidity;BME280_pressure;Samples;Min_cycle;Max_cycle;Signal;HPM_P1;HPM_P2
2023/10/11 00:01:29;;;;;;;18.33;13.32;;;;;22.10;100403.00;;;;2576713;23;20200;-58
2023/10/11 00:02:30;;;;;;;14.67;11.70;;;;;22.10;100406.00;;;;2548886;23;20201;-58
2023/10/11 00:04:32;;;;;;;14.03;11.77;;;;;22.10;100407.00;;;;2575265;23;20270;-58
2023/10/11 00:05:37;;;;;;;15.77;11.02;;;;;22.10;100403.00;;;;2563943;23;20201;-58
2023/10/11 00:06:37;;;;;;;12.48;11.20;;;;;22.10;100404.00;;;;2550721;23;20200;-59
2023/10/11 00:07:38;;;;;;;15.00;12.10;;;;;22.10;100406.00;;;;2538400;23;20202;-58
2023/10/11 00:08:41;;;;;;;13.87;11.57;;;;;22.10;100406.00;;;;2575833;23;20189;-58
2023/10/11 00:09:44;;;;;;;12.73;11.43;;;;;22.10;100406.00;;;;2574168;23;20193;-57
2023/10/11 00:10:49;;;;;;;13.35;10.68;;;;;22.10;100401.00;;;;2576112;23;20208;-58
2023/10/11 00:11:50;;;;;;;12.18;10.77;;;;;22.10;100411.00;;;;2575277;23;20242;-58
2023/10/11 00:12:50;;;;;;;12.80;11.10;;;;;22.10;100416.00;;;;2560835;23;20199;-57
2023/10/11 00:13:50;;;;;;;15.63;10.13;;;;;22.10;100403.00;;;;2575498;23;20203;-58
2023/10/11 00:14:51;;;;;;;12.10;10.50;;;;;22.10;100402.00;;;;2576113;23;20534;-58
2023/10/11 00:15:52;;;;;;;11.95;10.25;;;;;22.10;100402.00;;;;2578018;23;20196;-55
2023/10/11 00:16:54;;;;;;;12.40;11.10;;;;;22.10;100458.00;;;;2575364;23;20207;-62
2023/10/11 00:17:55;;;;;;;10.68;9.38;;;;;22.10;100402.00;;;;2564519;23;20204;-56
2023/10/11 00:18:56;;;;;;;13.10;10.52;;;;;22.10;100399.00;;;;2565917;23;20200;-58
2023/10/11 00:19:57;;;;;;;11.40;9.63;;;;;22.10;100403.00;;;;2564549;23;20596;-57
2023/10/11 00:20:58;;;;;;;12.90;10.05;;;;;22.10;100406.00;;;;2578599;23;20208;-57
2023/10/11 00:21:58;;;;;;;12.93;10.05;;;;;22.10;100157.00;;;;2579228;23;20220;-59
2023/10/11 00:23:01;;;;;;;11.57;8.93;;;;;22.10;100393.00;;;;2535428;23;20965;-57
2023/10/11 00:24:02;;;;;;;10.80;9.70;;;;;22.10;100414.00;;;;2546075;23;20200;-55
2023/10/11 00:25:04;;;;;;;10.47;9.40;;;;;22.10;100399.00;;;;2524290;23;20363;-55
2023/10/11 00:26:06;;;;;;;12.68;10.63;;;;;22.10;100395.00;;;;2547818;23;20205;-58
2023/10/11 00:27:10;;;;;;;11.60;9.18;;;;;22.10;100395.00;;;;2528692;23;20196;-58
2023/10/11 00:28:13;;;;;;;11.85;9.63;;;;;22.10;100394.00;;;;2579354;23;20200;-58
2023/10/11 00:29:14;;;;;;;12.23;9.23;;;;;22.10;100401.00;;;;2566728;23;20196;-56
2023/10/11 00:30:17;;;;;;;10.77;9.40;;;;;22.10;100400.00;;;;2559887;23;20629;-58
2023/10/11 00:31:18;;;;;;;10.02;8.90;;;;;22.10;100397.00;;;;2567318;23;20185;-55
2023/10/11 00:32:19;;;;;;;12.18;9.30;;;;;22.10;100398.00;;;;2541088;23;20201;-58
2023/10/11 00:33:19;;;;;;;10.63;9.30;;;;;22.10;100394.00;;;;2564833;23;20212;-57
2023/10/11 00:34:20;;;;;;;12.33;9.17;;;;;22.10;100395.00;;;;2565005;23;20226;-55
2023/10/11 00:35:24;;;;;;;11.73;9.00;;;;;22.10;100401.00;;;;2566465;23;20189;-56
2023/10/11 00:36:29;;;;;;;12.18;9.30;;;;;22.10;100395.00;;;;2567761;23;20569;-55
2023/10/11 00:37:30;;;;;;;12.68;8.90;;;;;22.10;100445.00;;;;2554736;23;20200;-58
2023/10/11 00:38:32;;;;;;;13.70;9.10;;;;;22.10;100401.00;;;;2580570;23;20848;-56
2023/10/11 00:39:33;;;;;;;11.75;9.05;;;;;22.10;100340.00;;;;2576138;23;20207;-55
2023/10/11 00:40:33;;;;;;;11.33;8.57;;;;;22.10;100395.00;;;;2580684;23;20223;-56
2023/10/11 00:41:39;;;;;;;10.97;8.83;;;;;22.10;100395.00;;;;2567938;23;20425;-56
2023/10/11 00:42:40;;;;;;;18.05;8.93;;;;;22.10;100360.00;;;;2553536;23;20714;-58
2023/10/11 00:43:41;;;;;;;13.80;8.33;;;;;22.10;100391.00;;;;2564034;23;20197;-55
2023/10/11 00:44:42;;;;;;;11.25;8.80;;;;;22.00;100245.00;;;;2539881;23;20202;-55
2023/10/11 00:45:43;;;;;;;13.70;7.63;;;;;22.00;100390.00;;;;2553066;23;20817;-55
2023/10/11 00:47:55;;;;;;;10.65;9.15;;;;;22.00;100348.00;;;;2543230;23;20249;-58
2023/10/11 00:49:14;;;;;;;8.90;7.53;;;;;22.00;100388.00;;;;2546241;23;20901;-57
2023/10/11 00:50:14;;;;;;;12.60;8.27;;;;;22.00;100385.00;;;;2562717;23;21274;-58
2023/10/11 00:51:15;;;;;;;8.50;7.33;;;;;22.00;100387.00;;;;2581653;23;20266;-54
2023/10/11 00:52:15;;;;;;;9.60;7.50;;;;;22.00;100385.00;;;;2564537;23;20203;-54
2023/10/11 00:53:15;;;;;;;9.60;8.13;;;;;22.00;100388.00;;;;2565726;23;20204;-55
2023/10/11 00:54:16;;;;;;;10.57;7.83;;;;;22.00;100390.00;;;;2568506;23;20189;-56
2023/10/11 00:55:23;;;;;;;9.47;8.40;;;;;22.00;100385.00;;;;2568345;23;20574;-58
2023/10/11 00:56:26;;;;;;;10.23;7.75;;;;;22.00;100383.00;;;;2569394;23;20268;-56
2023/10/11 00:57:27;;;;;;;10.13;7.95;;;;;22.00;100384.00;;;;2565911;23;20219;-57
2023/10/11 00:58:28;;;;;;;10.02;7.43;;;;;22.00;100356.00;;;;2555403;23;20285;-55
2023/10/11 00:59:28;;;;;;;9.23;7.60;;;;;22.00;100383.00;;;;2555894;23;20208;-56
2023/10/11 01:00:35;;;;;;;9.17;7.67;;;;;22.00;100330.00;;;;2553552;23;20617;-55
2023/10/11 01:01:39;;;;;;;10.88;7.85;;;;;22.00;100377.00;;;;2557047;23;20204;-55
2023/10/11 01:02:39;;;;;;;10.60;8.10;;;;;22.00;100380.00;;;;2543281;23;20243;-57
2023/10/11 01:03:41;;;;;;;10.20;7.50;;;;;22.00;100377.00;;;;2553453;23;20292;-55
2023/10/11 01:04:41;;;;;;;10.00;7.60;;;;;22.00;100381.00;;;;2567963;23;20205;-57
2023/10/11 01:05:44;;;;;;;8.87;7.60;;;;;22.00;100378.00;;;;2581767;23;20279;-54
2023/10/11 01:06:47;;;;;;;9.13;7.47;;;;;22.00;100366.00;;;;2567478;23;20196;-58
2023/10/11 01:07:50;;;;;;;10.27;7.97;;;;;22.00;100377.00;;;;2542810;23;20249;-55
2023/10/11 01:08:50;;;;;;;8.88;7.20;;;;;22.00;100377.00;;;;2554831;23;20194;-54
2023/10/11 01:09:50;;;;;;;10.10;7.60;;;;;22.00;100381.00;;;;2567671;23;20200;-57
2023/10/11 01:10:51;;;;;;;9.77;7.00;;;;;22.00;100387.00;;;;2577604;23;20208;-56
2023/10/11 01:11:51;;;;;;;11.37;7.00;;;;;22.00;100371.00;;;;2568518;23;20201;-57
2023/10/11 01:12:51;;;;;;;9.73;7.97;;;;;22.00;100383.00;;;;2554118;23;20201;-56
2023/10/11 01:13:52;;;;;;;9.47;7.30;;;;;22.00;100139.00;;;;2571685;23;20196;-56
2023/10/11 01:14:58;;;;;;;8.60;6.40;;;;;22.00;100376.00;;;;2581574;23;20203;-56
2023/10/11 01:15:59;;;;;;;8.13;6.50;;;;;22.00;100373.00;;;;2581468;23;20280;-56
2023/10/11 01:17:00;;;;;;;9.10;7.80;;;;;22.00;100370.00;;;;2578885;23;20223;-57
2023/10/11 01:18:00;;;;;;;9.50;6.53;;;;;22.00;100362.00;;;;2566219;23;20438;-54
2023/10/11 01:19:01;;;;;;;10.60;6.50;;;;;22.00;100363.00;;;;2567883;23;20243;-57
2023/10/11 01:20:05;;;;;;;8.77;6.70;;;;;22.00;100373.00;;;;2566531;23;20203;-58
2023/10/11 01:21:07;;;;;;;10.02;6.75;;;;;22.00;100367.00;;;;2575711;23;20223;-58
2023/10/11 01:22:09;;;;;;;7.55;6.45;;;;;22.00;100367.00;;;;2552083;23;20197;-57
2023/10/11 01:23:09;;;;;;;9.38;6.50;;;;;22.00;100367.00;;;;2565839;23;20235;-57
2023/10/11 01:24:09;;;;;;;9.90;6.33;;;;;22.00;100363.00;;;;2568122;23;20236;-57
2023/10/11 01:25:18;;;;;;;9.03;6.80;;;;;22.00;100366.00;;;;2568410;23;20209;-58
2023/10/11 01:26:19;;;;;;;8.20;5.88;;;;;22.00;100359.00;;;;2580419;23;20368;-58
2023/10/11 01:27:21;;;;;;;10.23;6.37;;;;;22.00;100366.00;;;;2554010;23;20200;-56
2023/10/11 01:28:22;;;;;;;9.73;6.45;;;;;22.00;100362.00;;;;2565638;23;20208;-58
2023/10/11 01:29:22;;;;;;;9.13;7.07;;;;;22.00;100366.00;;;;2581922;23;20203;-58
2023/10/11 01:30:26;;;;;;;6.87;5.97;;;;;22.00;100355.00;;;;2580365;23;20495;-58
2023/10/11 01:31:32;;;;;;;8.38;6.22;;;;;22.00;100357.00;;;;2581479;23;20226;-55
2023/10/11 01:32:42;;;;;;;7.50;5.88;;;;;22.00;100361.00;;;;2540432;23;20213;-55
2023/10/11 01:33:44;;;;;;;8.00;5.95;;;;;22.00;100362.00;;;;2560420;23;20665;-58
2023/10/11 01:34:44;;;;;;;9.43;6.43;;;;;22.00;100365.00;;;;2580799;23;20199;-58
2023/10/11 01:35:47;;;;;;;8.13;6.50;;;;;22.00;100362.00;;;;2580829;23;20222;-55
2023/10/11 01:36:48;;;;;;;7.55;6.32;;;;;22.00;100354.00;;;;2581613;23;20206;-58
2023/10/11 01:37:48;;;;;;;7.70;6.53;;;;;22.00;100351.00;;;;2562655;23;20200;-58
2023/10/11 01:38:49;;;;;;;8.33;6.37;;;;;22.00;100363.00;;;;2581811;23;20200;-57
2023/10/11 01:39:49;;;;;;;12.73;6.63;;;;;22.00;100359.00;;;;2580433;23;20200;-58
2023/10/11 01:40:54;;;;;;;6.70;6.00;;;;;22.00;100354.00;;;;2580739;23;20212;-55
2023/10/11 01:41:58;;;;;;;8.40;6.75;;;;;22.00;100354.00;;;;2564881;23;20243;-58
2023/10/11 01:42:59;;;;;;;7.55;6.00;;;;;22.00;100349.00;;;;2553790;23;20677;-57
2023/10/11 01:43:59;;;;;;;8.02;6.57;;;;;22.00;100340.00;;;;2578121;23;20203;-56
2023/10/11 01:45:00;;;;;;;8.20;6.93;;;;;22.00;100354.00;;;;2567186;23;20217;-54
2023/10/11 01:46:01;;;;;;;9.80;6.40;;;;;22.00;100348.00;;;;2564113;23;20201;-63
2023/10/11 01:47:01;;;;;;;8.50;6.40;;;;;22.00;100355.00;;;;2564915;23;20204;-59
2023/10/11 01:48:03;;;;;;;6.90;6.20;;;;;22.00;100351.00;;;;2549128;23;20215;-61
2023/10/11 01:49:07;;;;;;;8.02;5.80;;;;;22.00;100353.00;;;;2578885;23;20208;-57
2023/10/11 01:50:08;;;;;;;6.85;5.75;;;;;22.00;100350.00;;;;2577496;23;20184;-58
2023/10/11 01:51:09;;;;;;;9.17;6.33;;;;;22.00;100354.00;;;;2576225;23;20480;-58
2023/10/11 01:52:12;;;;;;;7.40;6.45;;;;;22.00;100348.00;;;;2561184;23;20283;-57
2023/10/11 01:53:14;;;;;;;7.75;6.25;;;;;22.00;100348.00;;;;2576937;23;20630;-57
2023/10/11 01:54:22;;;;;;;10.15;6.60;;;;;21.90;100344.00;;;;2577694;23;21057;-57
2023/10/11 01:55:23;;;;;;;8.07;5.95;;;;;22.00;100341.00;;;;2564761;23;20220;-58
2023/10/11 01:56:26;;;;;;;6.60;5.30;;;;;22.00;100346.00;;;;2565073;23;20219;-58
2023/10/11 01:57:26;;;;;;;11.40;5.93;;;;;22.00;100348.00;;;;2549852;23;21001;-57
2023/10/11 01:58:27;;;;;;;5.67;4.93;;;;;22.00;100342.00;;;;2552397;23;20197;-57
2023/10/11 01:59:27;;;;;;;6.00;5.23;;;;;22.00;100352.00;;;;2564772;23;20531;-57
2023/10/11 02:00:29;;;;;;;7.60;5.47;;;;;22.00;100349.00;;;;2576833;23;20263;-57
2023/10/11 02:01:38;;;;;;;8.70;6.20;;;;;22.00;100350.00;;;;2573547;23;20245;-57
2023/10/11 02:02:44;;;;;;;8.73;6.10;;;;;22.00;100344.00;;;;2561715;23;20498;-58
2023/10/11 02:03:46;;;;;;;7.78;5.75;;;;;21.90;100337.00;;;;2576731;23;20188;-57
2023/10/11 02:04:47;;;;;;;6.28;5.50;;;;;21.90;100346.00;;;;2578164;23;20200;-56
2023/10/11 02:05:47;;;;;;;6.60;5.20;;;;;21.90;100335.00;;;;2577595;23;20199;-57
2023/10/11 02:06:48;;;;;;;8.80;6.20;;;;;21.90;100342.00;;;;2576462;23;20200;-57
2023/10/11 02:07:48;;;;;;;7.70;6.07;;;;;21.90;100333.00;;;;2561798;23;20285;-56
2023/10/11 02:08:50;;;;;;;6.73;5.67;;;;;21.90;100335.00;;;;2577944;23;20203;-57
2023/10/11 02:09:50;;;;;;;8.00;5.95;;;;;21.90;100335.00;;;;2564530;23;20220;-57
2023/10/11 02:10:52;;;;;;;7.30;5.37;;;;;21.90;100334.00;;;;2563708;23;20316;-58
2023/10/11 02:11:52;;;;;;;8.13;5.63;;;;;21.90;100326.00;;;;2573761;23;20205;-57
2023/10/11 02:12:56;;;;;;;8.90;5.20;;;;;21.90;100334.00;;;;2561023;23;20667;-56
2023/10/11 02:13:59;;;;;;;7.88;5.57;;;;;21.90;100336.00;;;;2576412;23;20195;-58
2023/10/11 02:15:07;;;;;;;6.78;5.28;;;;;21.90;100331.00;;;;2574097;23;20729;-57
2023/10/11 02:16:11;;;;;;;7.38;5.30;;;;;21.90;100332.00;;;;2577335;23;20196;-58
2023/10/11 02:17:13;;;;;;;7.32;5.45;;;;;21.90;100321.00;;;;2562599;23;20268;-57
2023/10/11 02:18:13;;;;;;;8.73;5.32;;;;;21.90;100326.00;;;;2577797;23;20535;-57
2023/10/11 02:19:15;;;;;;;7.13;5.23;;;;;21.90;100352.00;;;;2577522;23;20192;-57
2023/10/11 02:20:20;;;;;;;6.50;5.30;;;;;21.90;100333.00;;;;2560313;23;20193;-57
2023/10/11 02:21:20;;;;;;;6.68;5.60;;;;;21.90;100326.00;;;;2564548;23;20247;-57
2023/10/11 02:22:22;;;;;;;8.13;5.60;;;;;21.90;100337.00;;;;2561231;23;20362;-57
2023/10/11 02:23:25;;;;;;;5.65;4.30;;;;;21.90;100333.00;;;;2573542;23;20202;-57
2023/10/11 02:24:26;;;;;;;10.30;5.80;;;;;21.90;100189.00;;;;2577023;23;20196;-58
2023/10/11 02:25:26;;;;;;;5.67;4.77;;;;;21.90;100335.00;;;;2563967;23;20205;-58
2023/10/11 02:26:34;;;;;;;8.30;5.17;;;;;21.90;100334.00;;;;2552159;23;20979;-58
2023/10/11 02:27:36;;;;;;;6.78;5.05;;;;;21.90;100336.00;;;;2550225;23;20213;-58
2023/10/11 02:28:39;;;;;;;6.65;5.13;;;;;21.90;100319.00;;;;2577512;23;20898;-58
2023/10/11 02:29:41;;;;;;;7.55;5.53;;;;;21.90;100330.00;;;;2562783;23;20246;-57
2023/10/11 02:30:42;;;;;;;7.18;5.40;;;;;21.90;100321.00;;;;2564040;23;20216;-57
2023/10/11 02:31:42;;;;;;;8.40;5.60;;;;;21.90;100326.00;;;;2576020;23;20639;-57
2023/10/11 02:32:43;;;;;;;9.40;5.20;;;;;21.90;100333.00;;;;2548499;23;20188;-57
2023/10/11 02:33:43;;;;;;;5.73;4.80;;;;;21.90;100335.00;;;;2562100;23;20201;-57
2023/10/11 02:34:47;;;;;;;6.27;5.30;;;;;21.90;100323.00;;;;2576648;23;20188;-57
2023/10/11 02:35:56;;;;;;;7.22;4.85;;;;;21.90;100322.00;;;;2563068;23;20193;-57
2023/10/11 02:37:01;;;;;;;6.05;4.80;;;;;21.90;100323.00;;;;2565803;23;20291;-57
2023/10/11 02:38:02;;;;;;;6.70;4.70;;;;;21.90;100330.00;;;;2558644;23;20744;-58
2023/10/11 02:39:05;;;;;;;10.13;5.40;;;;;21.90;100319.00;;;;2576214;23;20265;-58
2023/10/11 02:40:08;;;;;;;8.82;5.50;;;;;21.90;100321.00;;;;2576679;23;20634;-57
2023/10/11 02:41:08;;;;;;;5.85;4.70;;;;;21.90;100322.00;;;;2576454;23;20226;-56
2023/10/11 02:42:09;;;;;;;7.33;4.90;;;;;21.90;100325.00;;;;2544715;23;20991;-57
2023/10/11 02:43:09;;;;;;;5.33;4.60;;;;;21.90;100317.00;;;;2575244;23;20220;-57
2023/10/11 02:44:09;;;;;;;8.73;4.97;;;;;21.90;100313.00;;;;2551111;23;20257;-57
2023/10/11 02:45:12;;;;;;;6.07;4.73;;;;;21.90;100314.00;;;;2551317;23;20206;-57
2023/10/11 02:46:14;;;;;;;6.00;5.10;;;;;21.90;100309.00;;;;2562327;23;20188;-56
2023/10/11 02:47:22;;;;;;;8.32;4.95;;;;;21.90;100318.00;;;;2547643;23;20215;-58
2023/10/11 02:48:22;;;;;;;7.50;5.15;;;;;21.90;100311.00;;;;2574637;23;20188;-57
2023/10/11 02:49:23;;;;;;;4.93;4.40;;;;;21.90;100322.00;;;;2569860;23;20192;-57
2023/10/11 02:50:25;;;;;;;7.87;4.97;;;;;21.90;100311.00;;;;2576223;23;20196;-57
2023/10/11 02:51:25;;;;;;;6.90;4.70;;;;;21.90;100314.00;;;;2577231;23;20195;-57
2023/10/11 02:52:35;;;;;;;7.00;4.60;;;;;21.90;100315.00;;;;2561469;23;20231;-57
2023/10/11 02:53:36;;;;;;;7.25;4.55;;;;;21.90;100304.00;;;;2575563;23;20200;-57
2023/10/11 02:54:39;;;;;;;7.63;5.30;;;;;21.80;100314.00;;;;2577166;23;20196;-57
2023/10/11 02:55:39;;;;;;;7.05;4.57;;;;;21.90;100337.00;;;;2561381;23;20462;-57
2023/10/11 02:56:49;;;;;;;6.00;4.73;;;;;21.90;100313.00;;;;2548816;23;20194;-58
2023/10/11 02:58:05;;;;;;;6.22;5.05;;;;;21.90;100318.00;;;;2550100;23;20670;-56
2023/10/11 02:59:07;;;;;;;7.13;4.75;;;;;21.90;100320.00;;;;2574227;23;20500;-57
2023/10/11 03:00:23;;;;;;;8.25;4.85;;;;;21.90;100317.00;;;;2575897;23;20815;-59
2023/10/11 03:01:23;;;;;;;9.55;6.13;;;;;21.90;100319.00;;;;2564146;23;20307;-58
2023/10/11 03:02:29;;;;;;;7.37;4.77;;;;;21.90;100312.00;;;;2554525;23;20807;-57
2023/10/11 03:03:29;;;;;;;5.80;4.82;;;;;21.90;100211.00;;;;2578845;23;20215;-56
2023/10/11 03:04:35;;;;;;;5.50;4.40;;;;;21.90;100307.00;;;;2578072;23;20930;-56
2023/10/11 03:05:37;;;;;;;6.50;4.55;;;;;21.90;100312.00;;;;2566440;23;20272;-54
2023/10/11 03:06:38;;;;;;;8.52;5.45;;;;;21.90;100322.00;;;;2555402;23;20272;-56
2023/10/11 03:07:39;;;;;;;8.20;4.83;;;;;21.90;100309.00;;;;2550546;23;20196;-61
2023/10/11 03:08:44;;;;;;;7.10;4.55;;;;;21.90;100306.00;;;;2559274;23;20188;-57
2023/10/11 03:09:44;;;;;;;8.65;5.45;;;;;21.90;100226.00;;;;2578393;23;20192;-56
2023/10/11 03:10:45;;;;;;;7.03;4.80;;;;;21.90;100311.00;;;;2579454;23;20199;-58
2023/10/11 03:11:45;;;;;;;8.82;5.38;;;;;21.90;100303.00;;;;2579069;23;20253;-57
2023/10/11 03:12:50;;;;;;;8.80;4.77;;;;;21.90;100305.00;;;;2563248;23;20269;-56
2023/10/11 03:13:52;;;;;;;8.23;5.22;;;;;21.90;100306.00;;;;2577575;23;20220;-56
2023/10/11 03:14:54;;;;;;;11.82;4.95;;;;;21.90;100314.00;;;;2578795;23;20723;-57
2023/10/11 03:15:55;;;;;;;6.85;5.28;;;;;21.90;100310.00;;;;2579503;23;20196;-58
2023/10/11 03:16:56;;;;;;;9.25;5.32;;;;;21.90;100313.00;;;;2563191;23;20356;-56
2023/10/11 03:17:57;;;;;;;7.47;4.60;;;;;21.90;100305.00;;;;2551253;23;20204;-57
2023/10/11 03:18:59;;;;;;;8.33;5.13;;;;;21.90;100303.00;;;;2575774;23;20423;-55
2023/10/11 03:20:06;;;;;;;6.25;4.85;;;;;21.90;100307.00;;;;2579837;23;20200;-56
2023/10/11 03:21:17;;;;;;;7.72;4.53;;;;;21.80;100307.00;;;;2580368;23;20199;-54
2023/10/11 03:22:20;;;;;;;6.30;4.53;;;;;21.90;100308.00;;;;2548175;23;20195;-57
2023/10/11 03:23:25;;;;;;;9.05;4.50;;;;;21.90;100312.00;;;;2579443;23;20534;-55
2023/10/11 03:24:33;;;;;;;8.93;4.95;;;;;21.30;100310.00;;;;2579177;23;20891;-56
2023/10/11 03:25:37;;;;;;;8.50;5.00;;;;;21.90;100309.00;;;;2579381;23;20198;-58
2023/10/11 03:26:38;;;;;;;7.47;4.45;;;;;21.90;100311.00;;;;2580613;23;20341;-54
2023/10/11 03:27:48;;;;;;;7.60;4.70;;;;;21.90;100304.00;;;;2550448;23;20188;-57
2023/10/11 03:28:59;;;;;;;6.15;4.18;;;;;21.90;100305.00;;;;2578574;23;20506;-56
2023/10/11 03:30:01;;;;;;;6.07;4.70;;;;;21.90;100305.00;;;;2580393;23;20257;-54
2023/10/11 03:31:01;;;;;;;6.90;4.45;;;;;21.90;100308.00;;;;2566919;23;20192;-57
2023/10/11 03:32:04;;;;;;;6.77;4.33;;;;;21.90;100311.00;;;;2564635;23;20616;-55
2023/10/11 03:33:07;;;;;;;7.57;4.60;;;;;21.90;100304.00;;;;2576298;23;20210;-58
2023/10/11 03:34:17;;;;;;;6.80;4.95;;;;;21.90;100310.00;;;;2577110;23;20564;-57
2023/10/11 03:35:18;;;;;;;5.80;5.07;;;;;21.90;100312.00;;;;2577236;23;20692;-56
2023/10/11 03:36:21;;;;;;;7.72;4.53;;;;;21.90;100314.00;;;;2577509;23;20192;-57
2023/10/11 03:37:21;;;;;;;6.82;5.10;;;;;21.80;100321.00;;;;2559074;23;20192;-57
2023/10/11 03:38:22;;;;;;;7.00;4.57;;;;;21.90;100313.00;;;;2576884;23;20810;-57
2023/10/11 03:40:34;;;;;;;6.07;4.15;;;;;21.90;100305.00;;;;2577034;23;20431;-56
2023/10/11 03:41:45;;;;;;;9.33;4.77;;;;;21.80;100310.00;;;;2577612;23;21390;-57
2023/10/11 03:42:54;;;;;;;6.50;4.95;;;;;21.80;100309.00;;;;2561727;23;20267;-57
2023/10/11 03:44:00;;;;;;;7.75;5.28;;;;;21.90;100304.00;;;;2574757;23;20196;-58
2023/10/11 03:45:01;;;;;;;6.10;4.38;;;;;21.90;100305.00;;;;2576059;23;20219;-55
2023/10/11 03:46:04;;;;;;;6.77;4.73;;;;;21.90;100298.00;;;;2577644;23;20222;-57
2023/10/11 03:47:08;;;;;;;5.53;4.40;;;;;21.40;100309.00;;;;2564246;23;20765;-57
2023/10/11 03:48:09;;;;;;;8.60;4.85;;;;;21.90;100300.00;;;;2577759;23;20200;-58
2023/10/11 03:50:16;;;;;;;6.95;4.35;;;;;21.90;100293.00;;;;2572343;23;20192;-57
2023/10/11 03:51:19;;;;;;;7.10;4.60;;;;;21.80;100292.00;;;;2575236;23;20208;-55
2023/10/11 03:52:22;;;;;;;6.45;4.85;;;;;21.80;100303.00;;;;2561231;23;20302;-55
2023/10/11 03:53:22;;;;;;;7.60;5.15;;;;;21.80;100306.00;;;;2576343;23;20516;-57
2023/10/11 03:54:22;;;;;;;8.33;4.43;;;;;21.90;100299.00;;;;2573465;23;20199;-57
2023/10/11 03:55:23;;;;;;;7.30;4.20;;;;;21.80;100315.00;;;;2550114;23;20200;-57
2023/10/11 03:56:24;;;;;;;7.65;4.60;;;;;21.80;100297.00;;;;2550695;23;20204;-57
2023/10/11 03:57:24;;;;;;;6.40;4.53;;;;;21.80;100299.00;;;;2562674;23;20220;-57
2023/10/11 03:59:25;;;;;;;8.00;4.20;;;;;21.80;100296.00;;;;2563711;23;20213;-57
2023/10/11 04:00:28;;;;;;;5.75;5.07;;;;;21.80;100338.00;;;;2563536;23;20201;-58
2023/10/11 04:01:36;;;;;;;9.48;4.28;;;;;21.80;100302.00;;;;2576891;23;20196;-58
2023/10/11 04:02:37;;;;;;;6.47;4.47;;;;;21.80;100299.00;;;;2562461;23;20265;-57
2023/10/11 04:03:40;;;;;;;8.17;4.50;;;;;21.80;100305.00;;;;2575937;23;20200;-58
2023/10/11 04:04:42;;;;;;;6.28;4.60;;;;;21.80;100297.00;;;;2577359;23;20651;-57
2023/10/11 04:05:45;;;;;;;6.63;5.03;;;;;21.80;100301.00;;;;2575629;23;20227;-55
2023/10/11 04:06:51;;;;;;;6.18;4.60;;;;;21.80;100298.00;;;;2561321;23;20196;-58
2023/10/11 04:07:53;;;;;;;7.63;4.57;;;;;21.80;100301.00;;;;2549135;23;20346;-58
2023/10/11 04:09:02;;;;;;;6.88;4.43;;;;;21.80;100301.00;;;;2572343;23;20246;-55
2023/10/11 04:10:09;;;;;;;6.15;4.47;;;;;21.80;100298.00;;;;2576271;23;20701;-57
2023/10/11 04:11:29;;;;;;;5.97;4.10;;;;;21.80;100296.00;;;;2563230;23;20193;-58
2023/10/11 04:12:30;;;;;;;5.15;3.92;;;;;21.80;100288.00;;;;2537050;23;20197;-57
2023/10/11 04:13:30;;;;;;;5.97;3.92;;;;;21.80;100294.00;;;;2557726;23;20984;-57
2023/10/11 04:14:41;;;;;;;5.77;4.33;;;;;21.80;100289.00;;;;2577363;23;20192;-57
2023/10/11 04:15:42;;;;;;;8.23;4.43;;;;;21.80;100295.00;;;;2577025;23;20295;-57
2023/10/11 04:16:44;;;;;;;5.40;4.30;;;;;21.80;100288.00;;;;2571289;23;20528;-57
2023/10/11 04:17:49;;;;;;;6.80;4.75;;;;;21.80;100296.00;;;;2560135;23;20196;-57
2023/10/11 04:18:52;;;;;;;8.40;4.28;;;;;21.80;100285.00;;;;2575560;23;20192;-57
2023/10/11 04:21:25;;;;;;;5.70;3.95;;;;;21.80;100294.00;;;;2564996;23;20188;-57
2023/10/11 04:22:31;;;;;;;5.47;3.90;;;;;21.80;100286.00;;;;2555796;23;20535;-57
2023/10/11 04:23:35;;;;;;;6.32;4.35;;;;;21.80;100287.00;;;;2562686;23;20201;-57
2023/10/11 04:24:38;;;;;;;5.82;3.88;;;;;21.80;100290.00;;;;2566290;23;20708;-57
2023/10/11 04:25:39;;;;;;;7.80;4.40;;;;;21.80;100288.00;;;;2576278;23;20203;-57
2023/10/11 04:26:40;;;;;;;7.27;4.30;;;;;21.80;100290.00;;;;2578199;23;20887;-57
2023/10/11 04:28:44;;;;;;;9.23;4.85;;;;;21.80;100290.00;;;;2577987;23;20583;-57
2023/10/11 04:29:44;;;;;;;5.93;4.77;;;;;21.80;100286.00;;;;2577580;23;20192;-57
2023/10/11 04:30:44;;;;;;;5.00;3.93;;;;;21.80;100295.00;;;;2577691;23;20192;-56
2023/10/11 04:33:01;;;;;;;5.80;4.00;;;;;21.80;100294.00;;;;2539415;23;20193;-57
2023/10/11 04:34:11;;;;;;;5.82;4.25;;;;;21.80;100290.00;;;;2566782;23;20255;-57
2023/10/11 04:35:21;;;;;;;6.50;3.65;;;;;21.80;100292.00;;;;2569168;23;20196;-58
2023/10/11 04:36:22;;;;;;;9.38;4.95;;;;;21.80;100290.00;;;;2577216;23;20199;-58
2023/10/11 04:37:30;;;;;;;6.13;4.13;;;;;21.80;100287.00;;;;2561882;23;20344;-57
2023/10/11 04:38:33;;;;;;;9.35;4.60;;;;;21.80;100294.00;;;;2575724;23;20192;-57
2023/10/11 04:39:34;;;;;;;6.20;4.00;;;;;21.80;100286.00;;;;2577236;23;20234;-57
2023/10/11 04:41:38;;;;;;;8.07;4.80;;;;;21.80;100291.00;;;;2577226;23;20208;-57
2023/10/11 04:42:39;;;;;;;5.60;4.40;;;;;21.80;100295.00;;;;2563351;23;20192;-57
2023/10/11 04:43:50;;;;;;;6.70;4.20;;;;;21.80;100297.00;;;;2576586;23;20188;-56
2023/10/11 04:44:54;;;;;;;5.97;4.15;;;;;21.80;100291.00;;;;2539412;23;20212;-58
2023/10/11 04:45:55;;;;;;;7.00;4.60;;;;;21.80;100285.00;;;;2563484;23;20291;-57
2023/10/11 04:46:57;;;;;;;8.90;4.55;;;;;21.80;100293.00;;;;2577824;23;20188;-57
2023/10/11 04:47:58;;;;;;;8.32;4.43;;;;;21.80;100290.00;;;;2559775;23;20196;-57
2023/10/11 04:49:17;;;;;;;5.27;4.30;;;;;21.80;100295.00;;;;2578073;23;20222;-57
2023/10/11 04:50:17;;;;;;;9.93;4.38;;;;;21.80;100291.00;;;;2568565;23;20195;-56
2023/10/11 04:52:34;;;;;;;9.70;4.10;;;;;21.80;100297.00;;;;2560750;23;20203;-58
2023/10/11 04:53:45;;;;;;;5.75;4.30;;;;;21.80;100289.00;;;;2563317;23;20284;-58
2023/10/11 04:54:54;;;;;;;5.85;4.25;;;;;21.80;100303.00;;;;2545564;23;20192;-57
2023/10/11 04:56:01;;;;;;;5.07;4.00;;;;;21.80;100306.00;;;;2559710;23;20202;-56
2023/10/11 04:57:07;;;;;;;7.32;4.40;;;;;21.80;100305.00;;;;2575159;23;20231;-56
2023/10/11 04:58:08;;;;;;;6.28;3.80;;;;;21.80;100297.00;;;;2577548;23;20196;-57
2023/10/11 04:59:17;;;;;;;6.10;4.17;;;;;21.80;100297.00;;;;2578418;23;20203;-57
2023/10/11 05:00:18;;;;;;;6.18;3.70;;;;;21.80;100299.00;;;;2548386;23;20432;-57
2023/10/11 05:01:39;;;;;;;5.53;4.13;;;;;21.80;100298.00;;;;2554423;23;20292;-56
2023/10/11 05:02:39;;;;;;;5.00;3.67;;;;;21.80;100298.00;;;;2561653;23;20411;-57
2023/10/11 05:03:40;;;;;;;8.33;4.43;;;;;21.80;100297.00;;;;2576984;23;20198;-57
2023/10/11 05:04:44;;;;;;;7.57;4.30;;;;;21.80;100307.00;;;;2564536;23;20200;-56
2023/10/11 05:06:13;;;;;;;7.78;4.63;;;;;21.80;100298.00;;;;2564079;23;20529;-57
2023/10/11 05:07:08;;;;;;;5.72;3.88;;;;;21.30;100306.00;;;;2561287;23;20722;-56
2023/10/11 05:08:21;;;;;;;5.35;3.60;;;;;21.80;100298.00;;;;2578358;23;20207;-57
2023/10/11 05:09:29;;;;;;;4.28;3.80;;;;;21.80;100301.00;;;;2577422;23;20572;-57
2023/10/11 05:10:32;;;;;;;5.68;4.32;;;;;21.80;100297.00;;;;2574998;23;20662;-55
2023/10/11 05:11:43;;;;;;;6.47;4.07;;;;;21.80;100297.00;;;;2565560;23;20197;-55
2023/10/11 05:12:46;;;;;;;6.55;4.68;;;;;21.80;100303.00;;;;2563044;23;20192;-55
2023/10/11 05:13:59;;;;;;;5.55;4.32;;;;;21.80;100299.00;;;;2576675;23;20275;-58
2023/10/11 05:15:07;;;;;;;7.80;4.30;;;;;21.80;100309.00;;;;2578034;23;20200;-55
2023/10/11 05:16:07;;;;;;;5.90;4.20;;;;;21.80;100308.00;;;;2577740;23;20199;-55
2023/10/11 05:18:24;;;;;;;9.00;4.90;;;;;21.40;100301.00;;;;2562416;23;20639;-56
2023/10/11 05:19:28;;;;;;;7.25;4.53;;;;;21.80;100304.00;;;;2567640;23;20197;-58
2023/10/11 05:21:41;;;;;;;6.15;4.38;;;;;21.80;100307.00;;;;2565325;23;20197;-58
2023/10/11 05:24:03;;;;;;;5.10;3.90;;;;;21.70;100298.00;;;;2574244;23;20318;-57
2023/10/11 05:26:31;;;;;;;8.03;4.20;;;;;21.00;100285.00;;;;2576577;23;20227;-57
2023/10/11 05:27:37;;;;;;;5.60;3.85;;;;;21.80;100285.00;;;;2561542;23;20554;-58
2023/10/11 05:28:58;;;;;;;5.07;3.63;;;;;21.80;100285.00;;;;2574569;23;20195;-57